Time;durP1;ratioP1;P1;durP2;ratioP2;P2;SDS_P1;SDS_P2;PMS_P1;PMS_P2;Temp;Humidity;BMP_temperature;BMP_pressure;BME280_temperature;BME280_humidity;BME280_pressure;Samples;Min_cycle;Max_cycle;Signal;HPM_P1;HPM_P2
2023/06/13 00:00:13;;;;;;;12.40;7.15;;;;;;;;;;6286408;22;20026;-88
2023/06/13 00:02:40;;;;;;;9.60;8.60;;;;;;;;;;6233098;22;20069;-86
2023/06/13 00:05:06;;;;;;;11.90;10.57;;;;;;;;;;6231884;22;20020;-88
2023/06/13 00:07:37;;;;;;;12.30;9.38;;;;;;;;;;6260130;22;20065;-88
2023/06/13 00:10:04;;;;;;;8.95;7.57;;;;;;;;;;6236651;22;20072;-88
2023/06/13 00:12:32;;;;;;;9.93;8.15;;;;;;;;;;6235247;22;20016;-88
2023/06/13 00:15:01;;;;;;;15.65;14.43;;;;;;;;;;6235620;22;20022;-88
2023/06/13 00:17:28;;;;;;;16.33;12.68;;;;;;;;;;6233589;22;20042;-89
2023/06/13 00:19:55;;;;;;;14.77;12.27;;;;;;;;;;6235192;22;20012;-88
2023/06/13 00:22:22;;;;;;;13.27;11.98;;;;;;;;;;6235019;22;20046;-87
2023/06/13 00:24:48;;;;;;;11.77;9.60;;;;;;;;;;6260821;22;20343;-88
2023/06/13 00:27:14;;;;;;;10.75;9.65;;;;;;;;;;6258879;22;20012;-88
2023/06/13 00:29:40;;;;;;;8.85;7.03;;;;;;;;;;6234118;22;20022;-87
2023/06/13 00:32:07;;;;;;;9.32;7.53;;;;;;;;;;6260088;22;20043;-87
2023/06/13 00:34:33;;;;;;;8.57;7.35;;;;;;;;;;6234276;22;20043;-88
2023/06/13 00:36:59;;;;;;;13.85;11.88;;;;;;;;;;6233202;22;20008;-88
2023/06/13 00:39:25;;;;;;;12.10;10.77;;;;;;;;;;6259583;22;20019;-88
2023/06/13 00:41:51;;;;;;;9.15;7.32;;;;;;;;;;6258473;22;20092;-88
2023/06/13 00:44:17;;;;;;;10.65;8.38;;;;;;;;;;6233859;22;20012;-88
2023/06/13 00:46:44;;;;;;;7.97;7.18;;;;;;;;;;6259077;22;20354;-87
2023/06/13 00:49:11;;;;;;;9.93;9.07;;;;;;;;;;6259712;22;20017;-88
2023/06/13 00:51:40;;;;;;;12.70;10.88;;;;;;;;;;6258317;22;20080;-87
2023/06/13 00:54:06;;;;;;;13.20;11.65;;;;;;;;;;6234335;22;20512;-86
2023/06/13 00:56:33;;;;;;;12.18;7.75;;;;;;;;;;6232906;22;20098;-88
2023/06/13 00:59:03;;;;;;;10.27;8.60;;;;;;;;;;6259549;22;20056;-88
2023/06/13 01:01:29;;;;;;;10.85;7.75;;;;;;;;;;6233804;22;20012;-87
2023/06/13 01:03:55;;;;;;;10.57;8.82;;;;;;;;;;6258798;22;20019;-88
2023/06/13 01:06:24;;;;;;;9.60;7.85;;;;;;;;;;6259959;22;20069;-88
2023/06/13 01:08:51;;;;;;;9.55;8.57;;;;;;;;;;6258258;22;20035;-88
2023/06/13 01:11:21;;;;;;;11.73;8.40;;;;;;;;;;6284947;22;20020;-87
2023/06/13 01:13:53;;;;;;;11.80;8.25;;;;;;;;;;6234012;22;20012;-88
2023/06/13 01:16:25;;;;;;;12.88;9.52;;;;;;;;;;6257991;22;20427;-88
2023/06/13 01:18:51;;;;;;;12.82;9.93;;;;;;;;;;6258624;22;20016;-87
2023/06/13 01:21:19;;;;;;;10.57;7.20;;;;;;;;;;6258089;22;20051;-88
2023/06/13 01:23:49;;;;;;;12.23;7.38;;;;;;;;;;6233674;22;20035;-87
2023/06/13 01:26:34;;;;;;;11.40;9.05;;;;;;;;;;6257276;22;20061;-87
2023/06/13 01:29:00;;;;;;;9.18;8.00;;;;;;;;;;6232623;22;20019;-87
2023/06/13 01:31:28;;;;;;;12.52;9.95;;;;;;;;;;6257424;22;20047;-86
2023/06/13 01:33:55;;;;;;;14.52;7.55;;;;;;;;;;6258104;22;20016;-86
2023/06/13 01:36:21;;;;;;;8.35;6.35;;;;;;;;;;6257949;22;20451;-87
2023/06/13 01:38:48;;;;;;;9.80;7.68;;;;;;;;;;6257871;22;20064;-88
2023/06/13 01:41:14;;;;;;;10.77;7.07;;;;;;;;;;6259161;22;20022;-88
2023/06/13 01:43:40;;;;;;;10.18;6.70;;;;;;;;;;6258264;22;20039;-88
2023/06/13 01:46:26;;;;;;;8.18;6.18;;;;;;;;;;6257776;22;20011;-87
2023/06/13 01:49:13;;;;;;;7.90;7.05;;;;;;;;;;6258214;22;20050;-88
2023/06/13 01:51:51;;;;;;;10.65;6.80;;;;;;;;;;6257694;22;20099;-86
2023/06/13 01:54:20;;;;;;;8.27;5.72;;;;;;;;;;6227836;23;20020;-88
2023/06/13 01:56:48;;;;;;;9.25;5.50;;;;;;;;;;6250132;23;20048;-87
2023/06/13 01:59:16;;;;;;;8.38;5.45;;;;;;;;;;6251350;23;20016;-88
2023/06/13 02:01:43;;;;;;;9.98;5.88;;;;;;;;;;6250593;22;20008;-87
2023/06/13 02:04:09;;;;;;;10.85;5.93;;;;;;;;;;6226224;23;20039;-87
2023/06/13 02:06:35;;;;;;;11.52;5.47;;;;;;;;;;6253843;23;20012;-88
2023/06/13 02:09:01;;;;;;;9.38;5.88;;;;;;;;;;6253449;23;20019;-86
2023/06/13 02:11:28;;;;;;;12.23;5.78;;;;;;;;;;6252552;23;20062;-87
2023/06/13 02:13:54;;;;;;;14.45;5.60;;;;;;;;;;6227790;23;20023;-87
2023/06/13 02:16:25;;;;;;;9.13;5.35;;;;;;;;;;6253637;23;20077;-87
2023/06/13 02:18:55;;;;;;;8.73;6.53;;;;;;;;;;6253002;23;20012;-88
2023/06/13 02:21:22;;;;;;;11.32;5.80;;;;;;;;;;6227352;23;20043;-88
2023/06/13 02:23:48;;;;;;;9.63;5.55;;;;;;;;;;6252929;23;20016;-88
2023/06/13 02:26:14;;;;;;;8.55;5.97;;;;;;;;;;6253577;23;20043;-88
2023/06/13 02:28:40;;;;;;;8.95;6.07;;;;;;;;;;6229114;23;20012;-87
2023/06/13 02:31:06;;;;;;;13.20;6.22;;;;;;;;;;6253339;23;20027;-88
2023/06/13 02:33:32;;;;;;;12.05;6.03;;;;;;;;;;6228178;23;20020;-87
2023/06/13 02:35:58;;;;;;;8.52;6.00;;;;;;;;;;6253441;23;20477;-87
2023/06/13 02:38:24;;;;;;;10.45;5.82;;;;;;;;;;6227346;23;20016;-87
2023/06/13 02:40:50;;;;;;;10.50;6.10;;;;;;;;;;6253833;23;20456;-87
2023/06/13 02:43:16;;;;;;;12.98;5.75;;;;;;;;;;6227507;23;20030;-87
2023/06/13 02:45:42;;;;;;;9.30;5.85;;;;;;;;;;6252058;23;20074;-87
2023/06/13 02:48:08;;;;;;;8.75;6.55;;;;;;;;;;6252836;23;20016;-87
2023/06/13 02:50:34;;;;;;;9.65;5.95;;;;;;;;;;6252422;23;20016;-87
2023/06/13 02:53:00;;;;;;;9.90;6.93;;;;;;;;;;6251074;23;20074;-88
2023/06/13 02:55:28;;;;;;;11.52;6.28;;;;;;;;;;6227358;23;20024;-87
2023/06/13 02:57:55;;;;;;;9.82;6.50;;;;;;;;;;6251952;23;20016;-87
2023/06/13 03:00:21;;;;;;;10.10;5.93;;;;;;;;;;6228062;23;20012;-88
2023/06/13 03:02:47;;;;;;;12.23;7.50;;;;;;;;;;6227274;23;20035;-88
2023/06/13 03:05:17;;;;;;;9.48;6.57;;;;;;;;;;6226612;23;20076;-88
2023/06/13 03:07:46;;;;;;;9.65;6.20;;;;;;;;;;6251969;23;20027;-87
2023/06/13 03:10:13;;;;;;;11.88;6.88;;;;;;;;;;6253403;23;20015;-87
2023/06/13 03:12:39;;;;;;;11.27;6.68;;;;;;;;;;6228234;23;20016;-87
2023/06/13 03:15:06;;;;;;;11.98;6.57;;;;;;;;;;6252147;23;20023;-87
2023/06/13 03:17:33;;;;;;;11.40;6.50;;;;;;;;;;6253166;23;20176;-88
2023/06/13 03:19:59;;;;;;;11.40;6.80;;;;;;;;;;6252350;23;20016;-87
2023/06/13 03:22:25;;;;;;;12.98;7.95;;;;;;;;;;6252606;23;20012;-87
2023/06/13 03:24:52;;;;;;;10.23;6.65;;;;;;;;;;6227430;23;20008;-88
2023/06/13 03:27:19;;;;;;;15.90;7.60;;;;;;;;;;6251755;23;20012;-88
2023/06/13 03:29:45;;;;;;;9.35;6.70;;;;;;;;;;6253104;23;20044;-87
2023/06/13 03:32:12;;;;;;;12.02;7.28;;;;;;;;;;6253444;23;20018;-87
2023/06/13 03:34:38;;;;;;;9.73;7.47;;;;;;;;;;6251731;23;20013;-88
2023/06/13 03:37:05;;;;;;;9.75;7.22;;;;;;;;;;6252766;23;20020;-88
2023/06/13 03:39:31;;;;;;;9.25;6.22;;;;;;;;;;6254603;23;20023;-86
2023/06/13 03:41:58;;;;;;;13.98;7.80;;;;;;;;;;6228879;23;20008;-88
2023/06/13 03:44:25;;;;;;;11.18;6.57;;;;;;;;;;6255081;23;20022;-87
2023/06/13 03:46:51;;;;;;;8.52;7.38;;;;;;;;;;6254554;23;20039;-87
2023/06/13 03:49:20;;;;;;;13.57;6.72;;;;;;;;;;6255630;23;20012;-88
2023/06/13 03:51:46;;;;;;;12.48;6.68;;;;;;;;;;6253963;23;20027;-89
2023/06/13 03:54:12;;;;;;;17.70;6.78;;;;;;;;;;6254128;23;20115;-88
2023/06/13 03:56:38;;;;;;;11.48;6.63;;;;;;;;;;6253896;23;20018;-87
2023/06/13 03:59:04;;;;;;;12.93;6.55;;;;;;;;;;6256676;23;20031;-88
2023/06/13 04:01:31;;;;;;;10.50;6.32;;;;;;;;;;6228707;23;20043;-86
2023/06/13 04:03:57;;;;;;;12.35;6.45;;;;;;;;;;6254577;23;20023;-89
2023/06/13 04:06:23;;;;;;;11.45;6.40;;;;;;;;;;6230056;23;20016;-89
2023/06/13 04:08:50;;;;;;;10.13;6.65;;;;;;;;;;6255077;23;20039;-89
2023/06/13 04:11:16;;;;;;;9.90;6.45;;;;;;;;;;6254276;23;20102;-88
2023/06/13 04:13:42;;;;;;;8.50;6.13;;;;;;;;;;6256601;23;20016;-89
2023/06/13 04:16:08;;;;;;;13.02;6.03;;;;;;;;;;6230260;23;20023;-88
2023/06/13 04:18:37;;;;;;;9.77;6.22;;;;;;;;;;6230027;23;20016;-88
2023/06/13 04:21:03;;;;;;;12.43;6.15;;;;;;;;;;6254809;23;20447;-88
2023/06/13 04:23:30;;;;;;;9.27;6.50;;;;;;;;;;6255588;22;20038;-89
2023/06/13 04:25:57;;;;;;;11.70;6.35;;;;;;;;;;6256186;22;20320;-89
2023/06/13 04:28:24;;;;;;;8.52;6.05;;;;;;;;;;6227898;23;20020;-88
2023/06/13 04:30:51;;;;;;;9.07;6.47;;;;;;;;;;6230798;23;20285;-89
2023/06/13 04:33:17;;;;;;;8.98;6.10;;;;;;;;;;6229044;23;20016;-89
2023/06/13 04:35:44;;;;;;;7.57;6.07;;;;;;;;;;6229897;23;20066;-89
2023/06/13 04:38:21;;;;;;;10.63;6.72;;;;;;;;;;6255017;23;20016;-89
2023/06/13 04:40:48;;;;;;;10.55;6.63;;;;;;;;;;6230084;23;20012;-88
2023/06/13 04:43:17;;;;;;;10.82;6.72;;;;;;;;;;6255472;23;20056;-88
2023/06/13 04:45:43;;;;;;;12.63;7.82;;;;;;;;;;6256987;23;20016;-89
2023/06/13 04:48:10;;;;;;;10.95;6.72;;;;;;;;;;6229197;23;20012;-89
2023/06/13 04:50:40;;;;;;;8.35;6.50;;;;;;;;;;6254710;23;20097;-88
2023/06/13 04:53:11;;;;;;;15.00;7.88;;;;;;;;;;6255512;23;20047;-89
2023/06/13 04:55:37;;;;;;;10.32;6.93;;;;;;;;;;6256588;23;20020;-89
2023/06/13 04:58:04;;;;;;;9.18;6.97;;;;;;;;;;6255526;23;20020;-89
2023/06/13 05:00:30;;;;;;;8.63;7.68;;;;;;;;;;6224506;23;20016;-84
2023/06/13 05:02:56;;;;;;;9.52;7.53;;;;;;;;;;6220562;23;20016;-84
2023/06/13 05:05:22;;;;;;;9.85;7.28;;;;;;;;;;6221553;23;20016;-85
2023/06/13 05:07:59;;;;;;;11.13;7.82;;;;;;;;;;6249969;23;20031;-88
2023/06/13 05:10:26;;;;;;;11.77;8.35;;;;;;;;;;6219551;23;20012;-88
2023/06/13 05:12:53;;;;;;;9.65;7.40;;;;;;;;;;6245176;23;20073;-89
2023/06/13 05:15:20;;;;;;;11.57;5.57;;;;;;;;;;6245295;23;20043;-89
2023/06/13 05:17:46;;;;;;;8.10;5.75;;;;;;;;;;6244095;23;20016;-88
2023/06/13 05:20:14;;;;;;;20.63;5.55;;;;;;;;;;6247192;23;20012;-89
2023/06/13 05:22:41;;;;;;;9.40;5.32;;;;;;;;;;6219332;23;20317;-89
2023/06/13 05:25:11;;;;;;;8.40;5.20;;;;;;;;;;6246811;22;20091;-89
2023/06/13 05:27:38;;;;;;;10.55;5.40;;;;;;;;;;6245404;23;20427;-89
2023/06/13 05:30:11;;;;;;;9.57;5.22;;;;;;;;;;6244670;23;20008;-89
2023/06/13 05:32:37;;;;;;;;;;;;;;;;;;6245655;23;20317;-89
2023/06/13 05:35:03;;;;;;;9.68;5.07;;;;;;;;;;6245221;23;19911;-89
2023/06/13 05:37:29;;;;;;;8.45;5.15;;;;;;;;;;6244926;23;20023;-90
2023/06/13 05:39:55;;;;;;;7.90;7.15;;;;;;;;;;6218928;23;20084;-90
2023/06/13 05:42:21;;;;;;;14.93;13.63;;;;;;;;;;6244159;23;20019;-90
2023/06/13 05:44:47;;;;;;;25.40;16.23;;;;;;;;;;6246155;22;20009;-90
2023/06/13 05:47:13;;;;;;;30.10;27.90;;;;;;;;;;6219306;23;20008;-90
2023/06/13 05:49:39;;;;;;;62.05;58.13;;;;;;;;;;6219262;23;20015;-91
2023/06/13 05:52:06;;;;;;;74.53;70.45;;;;;;;;;;6219075;23;20015;-89
2023/06/13 05:54:32;;;;;;;94.03;88.55;;;;;;;;;;6244647;23;20012;-90
2023/06/13 05:57:01;;;;;;;153.38;144.35;;;;;;;;;;6219197;23;20096;-91
2023/06/13 05:59:27;;;;;;;145.45;136.85;;;;;;;;;;6244271;23;20012;-91
2023/06/13 06:01:53;;;;;;;189.45;178.77;;;;;;;;;;6246657;22;20077;-90
2023/06/13 06:04:19;;;;;;;216.60;204.07;;;;;;;;;;6245967;22;20012;-91
2023/06/13 06:06:45;;;;;;;239.88;225.85;;;;;;;;;;6219385;23;20012;-91
2023/06/13 06:09:11;;;;;;;230.75;217.32;;;;;;;;;;6219221;23;20015;-91
2023/06/13 06:11:37;;;;;;;282.35;265.33;;;;;;;;;;6246238;22;20083;-92
2023/06/13 06:14:03;;;;;;;298.85;280.83;;;;;;;;;;6218230;23;20047;-91
2023/06/13 06:16:30;;;;;;;388.25;363.50;;;;;;;;;;6244334;23;20016;-91
2023/06/13 06:18:56;;;;;;;313.60;294.77;;;;;;;;;;6244433;23;20031;-90
2023/06/13 06:21:22;;;;;;;434.73;406.98;;;;;;;;;;6243811;23;20016;-92
2023/06/13 06:23:48;;;;;;;484.85;452.10;;;;;;;;;;6244056;23;20077;-91
2023/06/13 06:26:14;;;;;;;527.60;492.42;;;;;;;;;;6218875;23;20443;-92
2023/06/13 06:28:40;;;;;;;609.03;565.95;;;;;;;;;;6244453;23;20023;-93
2023/06/13 06:31:06;;;;;;;669.45;620.53;;;;;;;;;;6244003;23;20012;-91
2023/06/13 06:33:32;;;;;;;763.58;704.20;;;;;;;;;;6244874;23;20079;-91
2023/06/13 06:35:58;;;;;;;721.85;668.50;;;;;;;;;;6218804;23;20503;-92
2023/06/13 06:38:24;;;;;;;774.45;716.05;;;;;;;;;;6244232;23;20012;-92
2023/06/13 06:40:50;;;;;;;722.33;668.17;;;;;;;;;;6244307;23;20016;-91
2023/06/13 06:43:16;;;;;;;747.08;690.35;;;;;;;;;;6243786;23;20016;-92
2023/06/13 06:45:42;;;;;;;798.15;735.05;;;;;;;;;;6246216;22;20507;-91
2023/06/13 06:48:08;;;;;;;836.42;768.97;;;;;;;;;;6218821;23;20066;-91
2023/06/13 06:50:34;;;;;;;870.92;798.10;;;;;;;;;;6246180;22;20016;-91
2023/06/13 06:53:00;;;;;;;915.80;836.63;;;;;;;;;;6245798;22;20019;-92
2023/06/13 06:55:26;;;;;;;834.08;765.63;;;;;;;;;;6218714;23;20028;-92
2023/06/13 06:57:54;;;;;;;940.97;856.63;;;;;;;;;;6243201;23;20522;-92
2023/06/13 07:00:23;;;;;;;905.65;828.22;;;;;;;;;;6218763;23;20023;-92
2023/06/13 07:02:50;;;;;;;959.75;871.35;;;;;;;;;;6245635;22;20375;-92
2023/06/13 07:05:16;;;;;;;991.78;896.33;;;;;;;;;;6218431;23;20016;-91
2023/06/13 07:07:44;;;;;;;977.72;886.60;;;;;;;;;;6219062;23;20087;-91
2023/06/13 07:10:10;;;;;;;1001.92;906.05;;;;;;;;;;6245988;22;20318;-91
2023/06/13 07:12:36;;;;;;;937.28;850.85;;;;;;;;;;6245346;22;20046;-91
2023/06/13 07:15:03;;;;;;;995.55;898.88;;;;;;;;;;6243432;23;20391;-92
2023/06/13 07:17:30;;;;;;;1015.58;916.30;;;;;;;;;;6244933;22;20062;-90
2023/06/13 07:19:56;;;;;;;992.83;899.15;;;;;;;;;;6245673;22;20016;-91
2023/06/13 07:22:22;;;;;;;1054.03;944.78;;;;;;;;;;6218618;23;20059;-91
2023/06/13 07:24:48;;;;;;;999.20;904.85;;;;;;;;;;6243871;23;20012;-89
2023/06/13 07:27:15;;;;;;;1009.95;909.20;;;;;;;;;;6217922;23;20015;-90
2023/06/13 07:29:41;;;;;;;1072.15;959.67;;;;;;;;;;6243781;23;20087;-89
2023/06/13 07:32:08;;;;;;;949.03;861.97;;;;;;;;;;6243522;23;20020;-89
2023/06/13 07:34:34;;;;;;;908.78;829.58;;;;;;;;;;6218304;23;20016;-90
2023/06/13 07:37:00;;;;;;;921.45;840.97;;;;;;;;;;6243951;23;20019;-89
2023/06/13 07:39:26;;;;;;;922.90;840.67;;;;;;;;;;6243677;23;20530;-89
2023/06/13 07:41:52;;;;;;;892.35;816.90;;;;;;;;;;6243300;23;20439;-89
2023/06/13 07:44:18;;;;;;;859.25;787.88;;;;;;;;;;6244096;23;20023;-90
2023/06/13 07:46:44;;;;;;;862.95;792.35;;;;;;;;;;6218814;23;20008;-90
2023/06/13 07:49:10;;;;;;;916.38;837.30;;;;;;;;;;6245275;22;20339;-90
2023/06/13 07:51:37;;;;;;;883.05;810.45;;;;;;;;;;6218347;23;20098;-89
2023/06/13 07:54:03;;;;;;;822.15;756.13;;;;;;;;;;6243508;23;20012;-90
2023/06/13 07:56:29;;;;;;;855.30;785.50;;;;;;;;;;6243695;23;20051;-90
2023/06/13 07:58:55;;;;;;;798.22;736.50;;;;;;;;;;6218545;23;20012;-90
2023/06/13 08:01:22;;;;;;;810.63;745.90;;;;;;;;;;6218772;23;20130;-90
2023/06/13 08:03:48;;;;;;;708.85;655.40;;;;;;;;;;6218678;23;20019;-88
2023/06/13 08:06:15;;;;;;;817.60;752.17;;;;;;;;;;6244110;23;20043;-90
2023/06/13 08:08:41;;;;;;;831.85;765.40;;;;;;;;;;6245507;23;20016;-90
2023/06/13 08:11:07;;;;;;;831.55;765.13;;;;;;;;;;6217681;23;20016;-90
2023/06/13 08:13:33;;;;;;;805.05;741.22;;;;;;;;;;6218171;23;20048;-89
2023/06/13 08:15:59;;;;;;;814.78;749.88;;;;;;;;;;6243940;23;20374;-91
2023/06/13 08:18:25;;;;;;;808.92;744.33;;;;;;;;;;6218021;23;20016;-90
2023/06/13 08:20:51;;;;;;;774.33;715.10;;;;;;;;;;6218657;23;20019;-90
2023/06/13 08:23:18;;;;;;;834.17;766.10;;;;;;;;;;6218407;23;20407;-90
2023/06/13 08:25:44;;;;;;;833.53;766.33;;;;;;;;;;6217940;23;20020;-91
2023/06/13 08:28:11;;;;;;;839.83;772.72;;;;;;;;;;6244684;23;20299;-91
2023/06/13 08:30:37;;;;;;;834.22;767.50;;;;;;;;;;6219921;23;20023;-91
2023/06/13 08:33:03;;;;;;;851.45;782.85;;;;;;;;;;6220279;23;20023;-90
2023/06/13 08:35:30;;;;;;;864.03;791.55;;;;;;;;;;6245218;23;20016;-90
2023/06/13 08:37:56;;;;;;;822.40;756.25;;;;;;;;;;6245793;23;20082;-89
2023/06/13 08:40:22;;;;;;;803.75;740.53;;;;;;;;;;6219488;23;20063;-89
2023/06/13 08:42:48;;;;;;;838.83;771.65;;;;;;;;;;6246714;22;20122;-89
2023/06/13 08:45:15;;;;;;;846.20;778.45;;;;;;;;;;6219887;23;20016;-88
2023/06/13 08:47:46;;;;;;;830.25;763.22;;;;;;;;;;6245336;23;20096;-91
2023/06/13 08:50:13;;;;;;;828.35;762.00;;;;;;;;;;6245412;23;20008;-91
2023/06/13 08:52:41;;;;;;;830.15;763.80;;;;;;;;;;6219825;23;20019;-90
2023/06/13 08:55:17;;;;;;;737.38;680.30;;;;;;;;;;6245017;23;20020;-89
2023/06/13 08:57:45;;;;;;;848.13;779.42;;;;;;;;;;6219758;23;20016;-90
2023/06/13 09:00:12;;;;;;;807.97;744.40;;;;;;;;;;6219621;23;20012;-90
2023/06/13 09:02:43;;;;;;;770.78;711.70;;;;;;;;;;6245421;23;20016;-90
2023/06/13 09:05:13;;;;;;;778.10;718.05;;;;;;;;;;6245199;23;20071;-89
2023/06/13 09:07:40;;;;;;;744.85;687.53;;;;;;;;;;6218820;23;20461;-88
2023/06/13 09:10:10;;;;;;;750.00;692.47;;;;;;;;;;6219508;23;20095;-88
2023/06/13 09:12:36;;;;;;;668.38;619.83;;;;;;;;;;6246964;22;20020;-89
2023/06/13 09:15:02;;;;;;;695.65;644.80;;;;;;;;;;6219260;23;20008;-89
2023/06/13 09:17:28;;;;;;;727.88;672.95;;;;;;;;;;6219407;23;20019;-89
2023/06/13 09:19:55;;;;;;;620.97;576.92;;;;;;;;;;6219697;23;20012;-89
2023/06/13 09:22:21;;;;;;;721.30;667.85;;;;;;;;;;6243998;23;20497;-89
2023/06/13 09:24:48;;;;;;;619.47;575.47;;;;;;;;;;6220154;23;20051;-89
2023/06/13 09:27:14;;;;;;;551.95;513.25;;;;;;;;;;6245217;23;20087;-89
2023/06/13 09:29:40;;;;;;;590.72;548.88;;;;;;;;;;6219631;23;20015;-89
2023/06/13 09:32:08;;;;;;;376.23;353.15;;;;;;;;;;6219839;23;20100;-90
2023/06/13 09:34:34;;;;;;;418.40;392.35;;;;;;;;;;6219672;23;20012;-89
2023/06/13 09:37:00;;;;;;;468.88;437.98;;;;;;;;;;6244631;23;20016;-88
2023/06/13 09:39:28;;;;;;;455.40;425.67;;;;;;;;;;6244631;23;20012;-88
2023/06/13 09:41:58;;;;;;;454.95;425.65;;;;;;;;;;6219613;23;20087;-88
2023/06/13 09:44:25;;;;;;;387.52;363.50;;;;;;;;;;6219422;23;20098;-89
2023/06/13 09:46:51;;;;;;;279.45;262.88;;;;;;;;;;6244700;23;20012;-88
2023/06/13 09:49:18;;;;;;;356.65;334.75;;;;;;;;;;6245660;22;20378;-89
2023/06/13 09:51:47;;;;;;;239.88;226.38;;;;;;;;;;6218489;23;20076;-88
2023/06/13 09:54:16;;;;;;;275.15;259.00;;;;;;;;;;6243500;23;20020;-87
2023/06/13 09:56:43;;;;;;;340.05;319.60;;;;;;;;;;6218457;23;20347;-88
2023/06/13 09:59:17;;;;;;;235.95;222.18;;;;;;;;;;6244279;23;20012;-89
2023/06/13 10:01:43;;;;;;;274.02;258.00;;;;;;;;;;6218677;23;20090;-88
2023/06/13 10:04:10;;;;;;;349.88;328.15;;;;;;;;;;6219345;23;20012;-88
2023/06/13 10:06:36;;;;;;;199.98;188.73;;;;;;;;;;6243500;23;20012;-89
2023/06/13 10:09:02;;;;;;;270.33;254.40;;;;;;;;;;6245247;22;20012;-87
2023/06/13 10:11:30;;;;;;;143.27;135.30;;;;;;;;;;6244791;22;20094;-88
2023/06/13 10:14:16;;;;;;;236.57;222.95;;;;;;;;;;6243137;23;20092;-87
2023/06/13 10:16:47;;;;;;;204.25;192.23;;;;;;;;;;6243422;23;20338;-88
2023/06/13 10:19:16;;;;;;;246.50;232.65;;;;;;;;;;6218214;23;20046;-88
2023/06/13 10:21:43;;;;;;;252.38;237.73;;;;;;;;;;6217696;23;20016;-89
2023/06/13 10:24:09;;;;;;;169.80;160.45;;;;;;;;;;6217903;23;20443;-87
2023/06/13 10:26:42;;;;;;;230.38;217.20;;;;;;;;;;6218515;23;20396;-87
2023/06/13 10:29:08;;;;;;;174.52;164.70;;;;;;;;;;6243690;23;20086;-87
2023/06/13 10:31:42;;;;;;;176.98;167.13;;;;;;;;;;6243771;23;20012;-87
2023/06/13 10:34:30;;;;;;;168.23;159.05;;;;;;;;;;6244142;23;20012;-88
2023/06/13 10:37:14;;;;;;;137.38;129.93;;;;;;;;;;6243461;23;20030;-87
2023/06/13 10:39:46;;;;;;;125.75;118.60;;;;;;;;;;6218422;23;20115;-88
2023/06/13 10:42:24;;;;;;;138.07;130.38;;;;;;;;;;6218458;23;20401;-87
2023/06/13 10:44:59;;;;;;;146.90;138.82;;;;;;;;;;6243444;23;20020;-88
2023/06/13 10:47:28;;;;;;;95.53;90.13;;;;;;;;;;6218480;23;20008;-89
2023/06/13 10:49:54;;;;;;;86.53;81.72;;;;;;;;;;6217553;23;20099;-89
2023/06/13 10:52:20;;;;;;;108.38;102.30;;;;;;;;;;6243148;23;20016;-87
2023/06/13 10:54:52;;;;;;;111.70;105.13;;;;;;;;;;6218120;23;20069;-88
2023/06/13 10:57:19;;;;;;;107.65;100.80;;;;;;;;;;6243972;23;20343;-87
2023/06/13 10:59:47;;;;;;;107.75;101.93;;;;;;;;;;6243535;23;20047;-87
2023/06/13 11:02:17;;;;;;;89.90;84.57;;;;;;;;;;6243252;23;20094;-88
2023/06/13 11:04:52;;;;;;;163.98;154.45;;;;;;;;;;6244349;22;20465;-87
2023/06/13 11:07:21;;;;;;;178.93;168.77;;;;;;;;;;6218273;23;20008;-87
2023/06/13 11:10:03;;;;;;;143.07;134.82;;;;;;;;;;6217843;23;20019;-87
2023/06/13 11:12:30;;;;;;;105.60;99.72;;;;;;;;;;6244317;23;20385;-87
2023/06/13 11:15:03;;;;;;;156.52;147.75;;;;;;;;;;6218311;23;20103;-88
2023/06/13 11:17:29;;;;;;;141.27;133.35;;;;;;;;;;6243347;23;20023;-88
2023/06/13 11:19:56;;;;;;;103.72;97.72;;;;;;;;;;6217669;23;20031;-88
2023/06/13 11:22:22;;;;;;;167.10;157.85;;;;;;;;;;6242674;23;20074;-87
2023/06/13 11:24:49;;;;;;;128.07;121.05;;;;;;;;;;6217592;23;20012;-87
2023/06/13 11:27:18;;;;;;;132.07;124.57;;;;;;;;;;6243064;23;20013;-88
2023/06/13 11:29:44;;;;;;;210.75;198.68;;;;;;;;;;6217790;23;20012;-88
2023/06/13 11:32:11;;;;;;;193.73;182.75;;;;;;;;;;6245356;22;20183;-88
2023/06/13 11:34:42;;;;;;;182.20;172.07;;;;;;;;;;6243521;23;20027;-88
2023/06/13 11:37:11;;;;;;;210.95;198.90;;;;;;;;;;6218088;23;20016;-87
2023/06/13 11:39:39;;;;;;;213.60;201.27;;;;;;;;;;6218097;23;20286;-88
2023/06/13 11:42:06;;;;;;;227.13;214.10;;;;;;;;;;6218030;23;20090;-87
2023/06/13 11:44:32;;;;;;;278.55;262.23;;;;;;;;;;6243457;23;20040;-87
2023/06/13 11:46:58;;;;;;;231.88;218.48;;;;;;;;;;6217822;23;20110;-89
2023/06/13 11:49:24;;;;;;;202.93;191.35;;;;;;;;;;6242578;23;20443;-87
2023/06/13 11:51:50;;;;;;;280.60;264.13;;;;;;;;;;6217820;23;20012;-88
2023/06/13 11:54:16;;;;;;;293.80;276.63;;;;;;;;;;6218200;23;20102;-88
2023/06/13 11:56:52;;;;;;;137.45;129.88;;;;;;;;;;6217603;23;20023;-87
2023/06/13 11:59:22;;;;;;;224.55;211.52;;;;;;;;;;6243109;23;20018;-87
2023/06/13 12:01:55;;;;;;;243.32;229.00;;;;;;;;;;6243912;22;20146;-87
2023/06/13 12:04:22;;;;;;;213.18;201.20;;;;;;;;;;6244827;23;20016;-87
2023/06/13 12:06:48;;;;;;;207.98;196.15;;;;;;;;;;6219474;23;20069;-88
2023/06/13 12:09:15;;;;;;;257.48;242.32;;;;;;;;;;6245211;23;20027;-88
2023/06/13 12:11:41;;;;;;;177.77;167.88;;;;;;;;;;6246032;23;20016;-88
2023/06/13 12:14:07;;;;;;;113.82;107.43;;;;;;;;;;6219635;23;20095;-88
2023/06/13 12:16:34;;;;;;;105.82;99.85;;;;;;;;;;6219328;23;20016;-88
2023/06/13 12:19:01;;;;;;;117.28;110.70;;;;;;;;;;6219751;23;20016;-89
2023/06/13 12:21:45;;;;;;;92.13;87.10;;;;;;;;;;6244996;23;20038;-87
2023/06/13 12:24:12;;;;;;;117.25;110.70;;;;;;;;;;6219840;23;20023;-88
2023/06/13 12:26:43;;;;;;;183.35;173.05;;;;;;;;;;6246574;22;20012;-88
2023/06/13 12:29:11;;;;;;;179.20;168.50;;;;;;;;;;6244806;23;20347;-88
2023/06/13 12:31:42;;;;;;;166.75;157.40;;;;;;;;;;6244250;23;20051;-87
2023/06/13 12:34:36;;;;;;;142.95;134.65;;;;;;;;;;6219453;23;20015;-87
2023/06/13 12:37:04;;;;;;;94.03;88.85;;;;;;;;;;6219741;23;20012;-88
2023/06/13 12:39:30;;;;;;;114.43;108.18;;;;;;;;;;6219870;23;20012;-88
2023/06/13 12:41:59;;;;;;;121.95;114.95;;;;;;;;;;6245051;23;20099;-87
2023/06/13 12:44:25;;;;;;;114.65;108.28;;;;;;;;;;6219445;23;20454;-89
2023/06/13 12:46:51;;;;;;;129.98;122.63;;;;;;;;;;6219071;23;20012;-87
2023/06/13 12:49:20;;;;;;;129.95;122.70;;;;;;;;;;6245115;23;20008;-88
2023/06/13 12:51:52;;;;;;;131.05;122.97;;;;;;;;;;6246424;22;20016;-89
2023/06/13 12:54:18;;;;;;;80.38;76.03;;;;;;;;;;6244312;23;20039;-89
2023/06/13 12:56:55;;;;;;;125.07;118.03;;;;;;;;;;6246236;23;20020;-88
2023/06/13 12:59:35;;;;;;;84.25;79.45;;;;;;;;;;6219550;23;20048;-87
2023/06/13 13:02:02;;;;;;;70.70;66.13;;;;;;;;;;6244785;23;20023;-88
2023/06/13 13:04:31;;;;;;;80.28;75.90;;;;;;;;;;6244924;23;20023;-87
2023/06/13 13:06:58;;;;;;;46.78;43.88;;;;;;;;;;6219348;23;20392;-89
2023/06/13 13:09:26;;;;;;;54.97;51.90;;;;;;;;;;6219472;23;20103;-89
2023/06/13 13:11:55;;;;;;;94.45;89.25;;;;;;;;;;6246455;22;20012;-87
2023/06/13 13:14:22;;;;;;;80.80;76.43;;;;;;;;;;6218039;23;20098;-89
2023/06/13 13:16:48;;;;;;;126.35;119.47;;;;;;;;;;6245189;23;20016;-88
2023/06/13 13:19:14;;;;;;;99.88;94.47;;;;;;;;;;6246854;22;20106;-88
2023/06/13 13:21:40;;;;;;;175.45;165.57;;;;;;;;;;6244476;23;20016;-89
2023/06/13 13:24:06;;;;;;;153.10;144.05;;;;;;;;;;6219852;23;20104;-88
2023/06/13 13:26:32;;;;;;;157.20;148.02;;;;;;;;;;6219570;23;20335;-88
2023/06/13 13:28:58;;;;;;;172.65;162.48;;;;;;;;;;6244185;23;20515;-88
2023/06/13 13:31:24;;;;;;;110.13;104.22;;;;;;;;;;6244204;23;20095;-88
2023/06/13 13:33:50;;;;;;;107.40;101.57;;;;;;;;;;6219094;23;20039;-88
2023/06/13 13:36:16;;;;;;;101.93;95.88;;;;;;;;;;6246003;22;20016;-88
2023/06/13 13:38:42;;;;;;;120.20;113.50;;;;;;;;;;6219020;23;20016;-89
2023/06/13 13:41:08;;;;;;;136.88;128.95;;;;;;;;;;6244903;23;20012;-88
2023/06/13 13:43:34;;;;;;;139.50;131.68;;;;;;;;;;6218416;23;20013;-87
2023/06/13 13:46:00;;;;;;;143.57;135.27;;;;;;;;;;6219299;23;20012;-88
2023/06/13 13:48:26;;;;;;;139.10;131.18;;;;;;;;;;6244555;23;20024;-89
2023/06/13 13:50:53;;;;;;;135.20;127.43;;;;;;;;;;6218769;23;20122;-87
2023/06/13 13:53:19;;;;;;;108.15;102.07;;;;;;;;;;6218669;23;20027;-87
2023/06/13 13:55:45;;;;;;;134.85;127.30;;;;;;;;;;6274480;22;20067;-88
2023/06/13 13:58:12;;;;;;;114.32;108.18;;;;;;;;;;6248554;22;20103;-88
2023/06/13 14:00:38;;;;;;;118.95;112.32;;;;;;;;;;6248764;22;20564;-88
2023/06/13 14:03:04;;;;;;;144.95;136.77;;;;;;;;;;6223419;22;20008;-88
2023/06/13 14:05:31;;;;;;;161.82;152.60;;;;;;;;;;6223548;22;20012;-88
2023/06/13 14:07:57;;;;;;;165.70;155.40;;;;;;;;;;6248704;22;20019;-88
2023/06/13 14:10:23;;;;;;;181.07;170.52;;;;;;;;;;6223930;22;20012;-88
2023/06/13 14:12:52;;;;;;;195.20;183.73;;;;;;;;;;6223570;22;20019;-88